sensor_id;sensor_type;location;lat;lon;timestamp;P1;durP1;ratioP1;P2;durP2;ratioP2
6667;SDS011;3370;47.712;9.082;2022-12-07T00:01:20;46.63;;;28.77;;
6667;SDS011;3370;47.712;9.082;2022-12-07T00:03:52;45.87;;;26.27;;
6667;SDS011;3370;47.712;9.082;2022-12-07T00:06:28;47.43;;;26.73;;
6667;SDS011;3370;47.712;9.082;2022-12-07T00:08:54;42.97;;;25.30;;
6667;SDS011;3370;47.712;9.082;2022-12-07T00:11:21;43.17;;;25.63;;
6667;SDS011;3370;47.712;9.082;2022-12-07T00:13:52;42.20;;;25.50;;
6667;SDS011;3370;47.712;9.082;2022-12-07T00:16:21;42.07;;;25.10;;
6667;SDS011;3370;47.712;9.082;2022-12-07T00:18:49;42.73;;;26.57;;
6667;SDS011;3370;47.712;9.082;2022-12-07T00:21:19;43.93;;;25.23;;
6667;SDS011;3370;47.712;9.082;2022-12-07T00:23:51;42.87;;;25.40;;
6667;SDS011;3370;47.712;9.082;2022-12-07T00:26:22;44.13;;;27.70;;
6667;SDS011;3370;47.712;9.082;2022-12-07T00:28:52;42.77;;;24.07;;
6667;SDS011;3370;47.712;9.082;2022-12-07T00:31:22;44.37;;;25.10;;
6667;SDS011;3370;47.712;9.082;2022-12-07T00:33:51;43.63;;;25.67;;
6667;SDS011;3370;47.712;9.082;2022-12-07T00:36:18;38.43;;;23.87;;
6667;SDS011;3370;47.712;9.082;2022-12-07T00:38:47;49.13;;;26.83;;
6667;SDS011;3370;47.712;9.082;2022-12-07T00:41:17;42.47;;;26.57;;
6667;SDS011;3370;47.712;9.082;2022-12-07T00:43:46;41.27;;;25.20;;
6667;SDS011;3370;47.712;9.082;2022-12-07T00:46:14;43.17;;;26.17;;
6667;SDS011;3370;47.712;9.082;2022-12-07T00:48:41;42.57;;;25.70;;
6667;SDS011;3370;47.712;9.082;2022-12-07T00:51:07;42.50;;;25.37;;
6667;SDS011;3370;47.712;9.082;2022-12-07T00:53:38;41.43;;;27.07;;
6667;SDS011;3370;47.712;9.082;2022-12-07T00:56:14;44.10;;;25.73;;
6667;SDS011;3370;47.712;9.082;2022-12-07T00:58:58;45.33;;;25.70;;
6667;SDS011;3370;47.712;9.082;2022-12-07T01:01:28;43.07;;;27.83;;
6667;SDS011;3370;47.712;9.082;2022-12-07T01:03:57;43.13;;;24.53;;
6667;SDS011;3370;47.712;9.082;2022-12-07T01:06:26;47.97;;;26.90;;
6667;SDS011;3370;47.712;9.082;2022-12-07T01:08:53;42.53;;;24.90;;
6667;SDS011;3370;47.712;9.082;2022-12-07T01:11:23;39.20;;;25.20;;
6667;SDS011;3370;47.712;9.082;2022-12-07T01:13:52;39.20;;;23.50;;
6667;SDS011;3370;47.712;9.082;2022-12-07T01:16:21;36.40;;;23.20;;
6667;SDS011;3370;47.712;9.082;2022-12-07T01:18:49;40.40;;;24.97;;
6667;SDS011;3370;47.712;9.082;2022-12-07T01:21:21;40.60;;;24.60;;
6667;SDS011;3370;47.712;9.082;2022-12-07T01:23:52;41.20;;;23.67;;
6667;SDS011;3370;47.712;9.082;2022-12-07T01:26:20;42.47;;;25.53;;
6667;SDS011;3370;47.712;9.082;2022-12-07T01:28:48;40.43;;;25.77;;
6667;SDS011;3370;47.712;9.082;2022-12-07T01:31:15;35.83;;;24.13;;
6667;SDS011;3370;47.712;9.082;2022-12-07T01:33:45;39.93;;;24.33;;
6667;SDS011;3370;47.712;9.082;2022-12-07T01:36:31;40.83;;;23.90;;
6667;SDS011;3370;47.712;9.082;2022-12-07T01:39:02;38.60;;;24.50;;
6667;SDS011;3370;47.712;9.082;2022-12-07T01:41:31;43.60;;;25.03;;
6667;SDS011;3370;47.712;9.082;2022-12-07T01:46:58;44.00;;;24.37;;
6667;SDS011;3370;47.712;9.082;2022-12-07T01:52:01;41.07;;;25.10;;
6667;SDS011;3370;47.712;9.082;2022-12-07T01:54:35;44.20;;;25.37;;
6667;SDS011;3370;47.712;9.082;2022-12-07T01:57:01;43.67;;;27.17;;
6667;SDS011;3370;47.712;9.082;2022-12-07T01:59:29;43.20;;;25.77;;
6667;SDS011;3370;47.712;9.082;2022-12-07T02:01:55;47.60;;;28.00;;
6667;SDS011;3370;47.712;9.082;2022-12-07T02:04:22;41.10;;;25.00;;
6667;SDS011;3370;47.712;9.082;2022-12-07T02:06:48;44.17;;;26.07;;
6667;SDS011;3370;47.712;9.082;2022-12-07T02:09:16;52.70;;;24.93;;
6667;SDS011;3370;47.712;9.082;2022-12-07T02:11:42;42.00;;;26.60;;
6667;SDS011;3370;47.712;9.082;2022-12-07T02:14:08;44.70;;;26.63;;
6667;SDS011;3370;47.712;9.082;2022-12-07T02:16:37;43.53;;;25.77;;
6667;SDS011;3370;47.712;9.082;2022-12-07T02:21:51;44.30;;;25.53;;
6667;SDS011;3370;47.712;9.082;2022-12-07T02:24:45;46.60;;;27.00;;
6667;SDS011;3370;47.712;9.082;2022-12-07T02:30:33;46.20;;;27.10;;
6667;SDS011;3370;47.712;9.082;2022-12-07T02:33:06;49.13;;;28.40;;
6667;SDS011;3370;47.712;9.082;2022-12-07T02:36:16;43.83;;;26.23;;
6667;SDS011;3370;47.712;9.082;2022-12-07T02:41:27;47.37;;;27.50;;
6667;SDS011;3370;47.712;9.082;2022-12-07T02:44:07;45.10;;;25.27;;
6667;SDS011;3370;47.712;9.082;2022-12-07T02:46:40;54.63;;;28.80;;
6667;SDS011;3370;47.712;9.082;2022-12-07T02:49:12;52.20;;;28.33;;
6667;SDS011;3370;47.712;9.082;2022-12-07T02:51:39;44.10;;;26.83;;
6667;SDS011;3370;47.712;9.082;2022-12-07T02:54:10;56.33;;;28.33;;
6667;SDS011;3370;47.712;9.082;2022-12-07T02:56:44;48.30;;;26.30;;
6667;SDS011;3370;47.712;9.082;2022-12-07T03:11:10;49.23;;;28.17;;
6667;SDS011;3370;47.712;9.082;2022-12-07T03:13:48;46.83;;;27.90;;
6667;SDS011;3370;47.712;9.082;2022-12-07T03:16:33;51.63;;;27.57;;
6667;SDS011;3370;47.712;9.082;2022-12-07T03:19:13;45.60;;;26.10;;
6667;SDS011;3370;47.712;9.082;2022-12-07T03:21:44;52.13;;;27.60;;
6667;SDS011;3370;47.712;9.082;2022-12-07T03:24:20;50.27;;;27.90;;
6667;SDS011;3370;47.712;9.082;2022-12-07T03:26:59;51.03;;;28.10;;
6667;SDS011;3370;47.712;9.082;2022-12-07T03:29:36;55.77;;;29.53;;
6667;SDS011;3370;47.712;9.082;2022-12-07T03:32:23;43.23;;;25.40;;
6667;SDS011;3370;47.712;9.082;2022-12-07T03:35:01;50.13;;;27.90;;
6667;SDS011;3370;47.712;9.082;2022-12-07T03:37:46;51.37;;;27.93;;
6667;SDS011;3370;47.712;9.082;2022-12-07T03:42:50;45.43;;;27.20;;
6667;SDS011;3370;47.712;9.082;2022-12-07T03:45:17;45.67;;;26.27;;
6667;SDS011;3370;47.712;9.082;2022-12-07T03:47:47;46.20;;;27.70;;
6667;SDS011;3370;47.712;9.082;2022-12-07T03:50:28;49.90;;;27.03;;
6667;SDS011;3370;47.712;9.082;2022-12-07T03:53:28;48.63;;;28.37;;
6667;SDS011;3370;47.712;9.082;2022-12-07T03:56:05;53.83;;;29.27;;
6667;SDS011;3370;47.712;9.082;2022-12-07T03:58:33;40.23;;;24.97;;
6667;SDS011;3370;47.712;9.082;2022-12-07T04:01:00;45.37;;;27.50;;
6667;SDS011;3370;47.712;9.082;2022-12-07T04:03:26;50.17;;;28.10;;
6667;SDS011;3370;47.712;9.082;2022-12-07T04:05:52;46.77;;;27.40;;
6667;SDS011;3370;47.712;9.082;2022-12-07T04:08:19;39.90;;;25.80;;
6667;SDS011;3370;47.712;9.082;2022-12-07T04:10:45;44.40;;;26.50;;
6667;SDS011;3370;47.712;9.082;2022-12-07T04:13:11;48.40;;;29.20;;
6667;SDS011;3370;47.712;9.082;2022-12-07T04:15:36;50.03;;;28.57;;
6667;SDS011;3370;47.712;9.082;2022-12-07T04:18:02;48.60;;;26.97;;
6667;SDS011;3370;47.712;9.082;2022-12-07T04:20:28;52.70;;;26.77;;
6667;SDS011;3370;47.712;9.082;2022-12-07T04:22:54;45.40;;;27.60;;
6667;SDS011;3370;47.712;9.082;2022-12-07T04:25:19;52.77;;;28.93;;
6667;SDS011;3370;47.712;9.082;2022-12-07T04:27:45;50.30;;;26.67;;
6667;SDS011;3370;47.712;9.082;2022-12-07T04:30:11;49.67;;;28.40;;
6667;SDS011;3370;47.712;9.082;2022-12-07T04:32:37;51.80;;;28.40;;
6667;SDS011;3370;47.712;9.082;2022-12-07T04:35:03;52.23;;;28.90;;
6667;SDS011;3370;47.712;9.082;2022-12-07T04:37:30;47.33;;;29.37;;
6667;SDS011;3370;47.712;9.082;2022-12-07T04:39:56;52.10;;;28.70;;
6667;SDS011;3370;47.712;9.082;2022-12-07T04:42:23;48.30;;;27.40;;
6667;SDS011;3370;47.712;9.082;2022-12-07T04:44:49;48.90;;;27.73;;
6667;SDS011;3370;47.712;9.082;2022-12-07T04:47:16;53.00;;;30.17;;
6667;SDS011;3370;47.712;9.082;2022-12-07T04:49:41;53.23;;;29.30;;
6667;SDS011;3370;47.712;9.082;2022-12-07T04:52:07;49.03;;;28.50;;
6667;SDS011;3370;47.712;9.082;2022-12-07T04:54:33;52.37;;;28.43;;
6667;SDS011;3370;47.712;9.082;2022-12-07T04:56:59;47.07;;;26.80;;
6667;SDS011;3370;47.712;9.082;2022-12-07T04:59:25;53.13;;;29.13;;
6667;SDS011;3370;47.712;9.082;2022-12-07T05:01:51;53.07;;;30.00;;
6667;SDS011;3370;47.712;9.082;2022-12-07T05:04:16;51.77;;;28.00;;
6667;SDS011;3370;47.712;9.082;2022-12-07T05:06:43;56.33;;;30.10;;
6667;SDS011;3370;47.712;9.082;2022-12-07T05:09:08;56.20;;;29.30;;
6667;SDS011;3370;47.712;9.082;2022-12-07T05:11:34;58.37;;;29.03;;
6667;SDS011;3370;47.712;9.082;2022-12-07T05:14:04;51.93;;;30.50;;
6667;SDS011;3370;47.712;9.082;2022-12-07T05:16:33;55.80;;;28.97;;
6667;SDS011;3370;47.712;9.082;2022-12-07T05:18:59;59.47;;;31.50;;
6667;SDS011;3370;47.712;9.082;2022-12-07T05:21:24;60.67;;;30.87;;
6667;SDS011;3370;47.712;9.082;2022-12-07T05:23:50;52.13;;;29.63;;
6667;SDS011;3370;47.712;9.082;2022-12-07T05:26:16;56.83;;;30.90;;
6667;SDS011;3370;47.712;9.082;2022-12-07T05:28:43;59.87;;;29.13;;
6667;SDS011;3370;47.712;9.082;2022-12-07T05:31:09;51.20;;;28.50;;
6667;SDS011;3370;47.712;9.082;2022-12-07T05:33:35;45.13;;;28.27;;
6667;SDS011;3370;47.712;9.082;2022-12-07T05:36:01;50.07;;;29.53;;
6667;SDS011;3370;47.712;9.082;2022-12-07T05:38:30;51.90;;;28.37;;
6667;SDS011;3370;47.712;9.082;2022-12-07T05:41:01;51.37;;;27.80;;
6667;SDS011;3370;47.712;9.082;2022-12-07T05:43:29;54.10;;;28.40;;
6667;SDS011;3370;47.712;9.082;2022-12-07T05:45:55;59.23;;;30.53;;
6667;SDS011;3370;47.712;9.082;2022-12-07T05:48:21;50.90;;;28.30;;
6667;SDS011;3370;47.712;9.082;2022-12-07T05:50:47;51.63;;;30.60;;
6667;SDS011;3370;47.712;9.082;2022-12-07T05:53:14;54.57;;;28.37;;
6667;SDS011;3370;47.712;9.082;2022-12-07T05:55:41;52.67;;;28.97;;
6667;SDS011;3370;47.712;9.082;2022-12-07T05:58:07;55.23;;;27.83;;
6667;SDS011;3370;47.712;9.082;2022-12-07T06:00:51;49.87;;;28.30;;
6667;SDS011;3370;47.712;9.082;2022-12-07T06:03:19;62.67;;;31.30;;
6667;SDS011;3370;47.712;9.082;2022-12-07T06:05:45;54.50;;;30.30;;
6667;SDS011;3370;47.712;9.082;2022-12-07T06:08:11;57.63;;;29.37;;
6667;SDS011;3370;47.712;9.082;2022-12-07T06:10:36;54.40;;;28.17;;
6667;SDS011;3370;47.712;9.082;2022-12-07T06:13:02;55.33;;;30.60;;
6667;SDS011;3370;47.712;9.082;2022-12-07T06:15:28;55.43;;;29.40;;
6667;SDS011;3370;47.712;9.082;2022-12-07T06:17:54;63.43;;;30.23;;
6667;SDS011;3370;47.712;9.082;2022-12-07T06:20:20;52.80;;;29.90;;
6667;SDS011;3370;47.712;9.082;2022-12-07T06:22:45;49.93;;;29.20;;
6667;SDS011;3370;47.712;9.082;2022-12-07T06:25:11;56.00;;;28.40;;
6667;SDS011;3370;47.712;9.082;2022-12-07T06:27:37;48.53;;;26.80;;
6667;SDS011;3370;47.712;9.082;2022-12-07T06:30:03;51.70;;;28.73;;
6667;SDS011;3370;47.712;9.082;2022-12-07T06:32:32;54.67;;;29.13;;
6667;SDS011;3370;47.712;9.082;2022-12-07T06:34:59;52.43;;;27.47;;
6667;SDS011;3370;47.712;9.082;2022-12-07T06:37:25;48.83;;;26.47;;
6667;SDS011;3370;47.712;9.082;2022-12-07T06:39:51;48.00;;;29.13;;
6667;SDS011;3370;47.712;9.082;2022-12-07T06:42:17;46.00;;;27.17;;
6667;SDS011;3370;47.712;9.082;2022-12-07T06:44:43;49.30;;;27.63;;
6667;SDS011;3370;47.712;9.082;2022-12-07T06:47:08;52.83;;;29.40;;
6667;SDS011;3370;47.712;9.082;2022-12-07T06:49:34;52.67;;;25.03;;
6667;SDS011;3370;47.712;9.082;2022-12-07T06:52:00;51.80;;;29.33;;
6667;SDS011;3370;47.712;9.082;2022-12-07T06:54:26;50.60;;;26.90;;
6667;SDS011;3370;47.712;9.082;2022-12-07T06:56:52;50.43;;;26.93;;
6667;SDS011;3370;47.712;9.082;2022-12-07T06:59:18;52.10;;;26.40;;
6667;SDS011;3370;47.712;9.082;2022-12-07T07:01:44;47.20;;;25.43;;
6667;SDS011;3370;47.712;9.082;2022-12-07T07:04:09;47.67;;;26.93;;
6667;SDS011;3370;47.712;9.082;2022-12-07T07:06:35;50.63;;;28.20;;
6667;SDS011;3370;47.712;9.082;2022-12-07T07:09:01;45.27;;;26.60;;
6667;SDS011;3370;47.712;9.082;2022-12-07T07:11:27;48.10;;;28.40;;
6667;SDS011;3370;47.712;9.082;2022-12-07T07:13:56;46.87;;;26.87;;
6667;SDS011;3370;47.712;9.082;2022-12-07T07:16:27;44.50;;;25.17;;
6667;SDS011;3370;47.712;9.082;2022-12-07T07:18:55;49.70;;;28.27;;
6667;SDS011;3370;47.712;9.082;2022-12-07T07:21:21;50.87;;;26.80;;
6667;SDS011;3370;47.712;9.082;2022-12-07T07:23:47;44.53;;;25.30;;
6667;SDS011;3370;47.712;9.082;2022-12-07T07:26:13;46.60;;;25.90;;
6667;SDS011;3370;47.712;9.082;2022-12-07T07:28:38;45.13;;;25.93;;
6667;SDS011;3370;47.712;9.082;2022-12-07T07:31:04;42.57;;;25.17;;
6667;SDS011;3370;47.712;9.082;2022-12-07T07:33:30;56.50;;;27.67;;
6667;SDS011;3370;47.712;9.082;2022-12-07T07:35:56;52.27;;;27.73;;
6667;SDS011;3370;47.712;9.082;2022-12-07T07:38:22;50.13;;;27.30;;
6667;SDS011;3370;47.712;9.082;2022-12-07T07:40:47;54.80;;;28.80;;
6667;SDS011;3370;47.712;9.082;2022-12-07T07:43:13;48.50;;;27.20;;
6667;SDS011;3370;47.712;9.082;2022-12-07T07:45:39;53.30;;;28.97;;
6667;SDS011;3370;47.712;9.082;2022-12-07T07:48:05;53.57;;;28.70;;
6667;SDS011;3370;47.712;9.082;2022-12-07T07:50:31;51.97;;;27.77;;
6667;SDS011;3370;47.712;9.082;2022-12-07T07:52:57;52.67;;;27.93;;
6667;SDS011;3370;47.712;9.082;2022-12-07T07:55:23;54.50;;;29.03;;
6667;SDS011;3370;47.712;9.082;2022-12-07T07:57:49;56.80;;;28.57;;
6667;SDS011;3370;47.712;9.082;2022-12-07T08:00:15;50.10;;;27.40;;
6667;SDS011;3370;47.712;9.082;2022-12-07T08:02:41;52.77;;;25.90;;
6667;SDS011;3370;47.712;9.082;2022-12-07T08:05:08;54.17;;;28.03;;
6667;SDS011;3370;47.712;9.082;2022-12-07T08:07:36;49.37;;;25.83;;
6667;SDS011;3370;47.712;9.082;2022-12-07T08:10:02;61.80;;;36.70;;
6667;SDS011;3370;47.712;9.082;2022-12-07T08:12:29;49.33;;;27.30;;
6667;SDS011;3370;47.712;9.082;2022-12-07T08:14:55;46.00;;;26.00;;
6667;SDS011;3370;47.712;9.082;2022-12-07T08:17:21;48.13;;;26.77;;
6667;SDS011;3370;47.712;9.082;2022-12-07T08:19:47;40.33;;;24.00;;
6667;SDS011;3370;47.712;9.082;2022-12-07T08:22:12;42.00;;;25.40;;
6667;SDS011;3370;47.712;9.082;2022-12-07T08:24:38;48.63;;;25.60;;
6667;SDS011;3370;47.712;9.082;2022-12-07T08:27:04;50.40;;;27.93;;
6667;SDS011;3370;47.712;9.082;2022-12-07T08:29:30;50.10;;;26.13;;
6667;SDS011;3370;47.712;9.082;2022-12-07T08:31:56;47.20;;;24.47;;
6667;SDS011;3370;47.712;9.082;2022-12-07T08:34:21;44.40;;;24.60;;
6667;SDS011;3370;47.712;9.082;2022-12-07T08:36:47;48.57;;;26.80;;
6667;SDS011;3370;47.712;9.082;2022-12-07T08:39:13;50.60;;;27.30;;
6667;SDS011;3370;47.712;9.082;2022-12-07T08:41:39;45.93;;;25.73;;
6667;SDS011;3370;47.712;9.082;2022-12-07T08:44:04;44.10;;;24.73;;
6667;SDS011;3370;47.712;9.082;2022-12-07T08:46:32;48.00;;;26.93;;
6667;SDS011;3370;47.712;9.082;2022-12-07T08:49:08;48.70;;;25.23;;
6667;SDS011;3370;47.712;9.082;2022-12-07T08:51:38;45.77;;;27.23;;
6667;SDS011;3370;47.712;9.082;2022-12-07T08:54:06;48.63;;;25.50;;
6667;SDS011;3370;47.712;9.082;2022-12-07T08:56:36;57.47;;;27.17;;
6667;SDS011;3370;47.712;9.082;2022-12-07T08:59:03;47.17;;;24.97;;
6667;SDS011;3370;47.712;9.082;2022-12-07T09:01:30;49.43;;;25.57;;
6667;SDS011;3370;47.712;9.082;2022-12-07T09:03:56;51.50;;;28.73;;
6667;SDS011;3370;47.712;9.082;2022-12-07T09:06:22;52.10;;;27.53;;
6667;SDS011;3370;47.712;9.082;2022-12-07T09:08:49;57.37;;;28.10;;
6667;SDS011;3370;47.712;9.082;2022-12-07T09:11:20;51.27;;;27.83;;
6667;SDS011;3370;47.712;9.082;2022-12-07T09:13:46;48.63;;;26.60;;
6667;SDS011;3370;47.712;9.082;2022-12-07T09:16:12;49.03;;;28.07;;
6667;SDS011;3370;47.712;9.082;2022-12-07T09:18:38;48.17;;;24.50;;
6667;SDS011;3370;47.712;9.082;2022-12-07T09:21:04;51.93;;;27.67;;
6667;SDS011;3370;47.712;9.082;2022-12-07T09:23:30;49.43;;;26.07;;
6667;SDS011;3370;47.712;9.082;2022-12-07T09:25:58;49.70;;;25.73;;
6667;SDS011;3370;47.712;9.082;2022-12-07T09:28:26;50.47;;;25.50;;
6667;SDS011;3370;47.712;9.082;2022-12-07T09:30:52;46.47;;;24.90;;
6667;SDS011;3370;47.712;9.082;2022-12-07T09:33:17;44.97;;;24.13;;
6667;SDS011;3370;47.712;9.082;2022-12-07T09:35:44;48.13;;;26.77;;
6667;SDS011;3370;47.712;9.082;2022-12-07T09:38:11;46.63;;;24.87;;
6667;SDS011;3370;47.712;9.082;2022-12-07T09:40:38;48.87;;;24.07;;
6667;SDS011;3370;47.712;9.082;2022-12-07T09:43:04;48.80;;;25.67;;
6667;SDS011;3370;47.712;9.082;2022-12-07T09:45:34;44.67;;;24.43;;
6667;SDS011;3370;47.712;9.082;2022-12-07T09:48:02;44.50;;;24.70;;
6667;SDS011;3370;47.712;9.082;2022-12-07T09:50:29;38.90;;;22.37;;
6667;SDS011;3370;47.712;9.082;2022-12-07T09:52:58;35.70;;;20.57;;
6667;SDS011;3370;47.712;9.082;2022-12-07T09:55:35;31.43;;;18.33;;
6667;SDS011;3370;47.712;9.082;2022-12-07T09:58:03;30.07;;;17.57;;
6667;SDS011;3370;47.712;9.082;2022-12-07T10:00:29;31.63;;;17.70;;
6667;SDS011;3370;47.712;9.082;2022-12-07T10:05:27;29.03;;;16.67;;
6667;SDS011;3370;47.712;9.082;2022-12-07T10:08:03;31.47;;;18.20;;
6667;SDS011;3370;47.712;9.082;2022-12-07T10:10:31;27.33;;;17.13;;
6667;SDS011;3370;47.712;9.082;2022-12-07T10:13:04;30.17;;;17.80;;
6667;SDS011;3370;47.712;9.082;2022-12-07T10:15:55;28.23;;;17.30;;
6667;SDS011;3370;47.712;9.082;2022-12-07T10:23:39;27.57;;;17.43;;
6667;SDS011;3370;47.712;9.082;2022-12-07T10:26:34;24.23;;;15.20;;
6667;SDS011;3370;47.712;9.082;2022-12-07T10:32:01;27.67;;;15.47;;
6667;SDS011;3370;47.712;9.082;2022-12-07T10:37:58;29.00;;;17.50;;
6667;SDS011;3370;47.712;9.082;2022-12-07T10:43:21;29.23;;;17.23;;
6667;SDS011;3370;47.712;9.082;2022-12-07T10:52:26;26.23;;;13.87;;
6667;SDS011;3370;47.712;9.082;2022-12-07T10:55:20;22.60;;;13.50;;
6667;SDS011;3370;47.712;9.082;2022-12-07T11:00:49;24.87;;;15.33;;
6667;SDS011;3370;47.712;9.082;2022-12-07T11:09:56;24.60;;;15.37;;
6667;SDS011;3370;47.712;9.082;2022-12-07T11:18:29;21.20;;;14.27;;
6667;SDS011;3370;47.712;9.082;2022-12-07T11:21:27;24.20;;;14.00;;
6667;SDS011;3370;47.712;9.082;2022-12-07T11:24:41;22.50;;;14.40;;
6667;SDS011;3370;47.712;9.082;2022-12-07T11:27:48;24.37;;;15.13;;
6667;SDS011;3370;47.712;9.082;2022-12-07T11:30:30;26.47;;;15.10;;
6667;SDS011;3370;47.712;9.082;2022-12-07T11:33:33;19.83;;;13.73;;
6667;SDS011;3370;47.712;9.082;2022-12-07T11:42:04;27.43;;;16.80;;
6667;SDS011;3370;47.712;9.082;2022-12-07T11:44:51;25.53;;;14.13;;
6667;SDS011;3370;47.712;9.082;2022-12-07T11:55:31;19.93;;;12.00;;
6667;SDS011;3370;47.712;9.082;2022-12-07T11:58:29;18.33;;;12.97;;
6667;SDS011;3370;47.712;9.082;2022-12-07T12:06:37;19.40;;;12.23;;
6667;SDS011;3370;47.712;9.082;2022-12-07T12:09:12;18.60;;;12.67;;
6667;SDS011;3370;47.712;9.082;2022-12-07T12:12:05;18.10;;;12.17;;
6667;SDS011;3370;47.712;9.082;2022-12-07T12:15:16;28.10;;;14.53;;
6667;SDS011;3370;47.712;9.082;2022-12-07T12:21:04;21.87;;;13.60;;
6667;SDS011;3370;47.712;9.082;2022-12-07T12:23:41;20.20;;;13.07;;
6667;SDS011;3370;47.712;9.082;2022-12-07T12:26:23;23.63;;;14.23;;
6667;SDS011;3370;47.712;9.082;2022-12-07T12:29:02;22.13;;;14.67;;
6667;SDS011;3370;47.712;9.082;2022-12-07T12:31:43;26.60;;;16.03;;
6667;SDS011;3370;47.712;9.082;2022-12-07T12:34:31;25.80;;;15.80;;
6667;SDS011;3370;47.712;9.082;2022-12-07T12:36:58;25.60;;;15.37;;
6667;SDS011;3370;47.712;9.082;2022-12-07T12:39:24;22.67;;;15.10;;
6667;SDS011;3370;47.712;9.082;2022-12-07T12:41:52;22.70;;;15.13;;
6667;SDS011;3370;47.712;9.082;2022-12-07T12:46:49;22.43;;;15.87;;
6667;SDS011;3370;47.712;9.082;2022-12-07T12:54:22;26.10;;;16.00;;
6667;SDS011;3370;47.712;9.082;2022-12-07T12:57:01;23.80;;;16.47;;
6667;SDS011;3370;47.712;9.082;2022-12-07T12:59:56;24.70;;;15.37;;
6667;SDS011;3370;47.712;9.082;2022-12-07T13:20:57;20.47;;;14.50;;
6667;SDS011;3370;47.712;9.082;2022-12-07T13:23:31;21.70;;;14.93;;
6667;SDS011;3370;47.712;9.082;2022-12-07T13:26:19;22.30;;;15.63;;
6667;SDS011;3370;47.712;9.082;2022-12-07T13:28:48;22.70;;;14.27;;
6667;SDS011;3370;47.712;9.082;2022-12-07T13:31:23;23.13;;;13.77;;
6667;SDS011;3370;47.712;9.082;2022-12-07T13:36:59;20.13;;;13.43;;
6667;SDS011;3370;47.712;9.082;2022-12-07T13:39:54;22.23;;;13.63;;
6667;SDS011;3370;47.712;9.082;2022-12-07T13:42:31;19.83;;;13.03;;
6667;SDS011;3370;47.712;9.082;2022-12-07T13:44:59;22.47;;;13.80;;
6667;SDS011;3370;47.712;9.082;2022-12-07T13:48:47;25.07;;;13.77;;
6667;SDS011;3370;47.712;9.082;2022-12-07T13:51:20;19.87;;;13.30;;
6667;SDS011;3370;47.712;9.082;2022-12-07T13:53:52;19.27;;;12.90;;
6667;SDS011;3370;47.712;9.082;2022-12-07T13:56:22;17.77;;;12.40;;
6667;SDS011;3370;47.712;9.082;2022-12-07T13:58:59;20.63;;;13.80;;
6667;SDS011;3370;47.712;9.082;2022-12-07T14:01:25;19.20;;;13.40;;
6667;SDS011;3370;47.712;9.082;2022-12-07T14:03:51;19.13;;;13.00;;
6667;SDS011;3370;47.712;9.082;2022-12-07T14:06:24;18.27;;;12.53;;
6667;SDS011;3370;47.712;9.082;2022-12-07T14:09:09;22.03;;;13.43;;
6667;SDS011;3370;47.712;9.082;2022-12-07T14:11:44;20.83;;;13.83;;
6667;SDS011;3370;47.712;9.082;2022-12-07T14:14:17;19.17;;;12.33;;
6667;SDS011;3370;47.712;9.082;2022-12-07T14:17:01;17.23;;;11.47;;
6667;SDS011;3370;47.712;9.082;2022-12-07T14:19:45;18.83;;;11.57;;
6667;SDS011;3370;47.712;9.082;2022-12-07T14:27:58;17.13;;;12.00;;
6667;SDS011;3370;47.712;9.082;2022-12-07T14:30:26;18.27;;;11.63;;
6667;SDS011;3370;47.712;9.082;2022-12-07T14:32:57;17.47;;;11.87;;
6667;SDS011;3370;47.712;9.082;2022-12-07T14:35:26;17.07;;;11.50;;
6667;SDS011;3370;47.712;9.082;2022-12-07T14:37:53;15.70;;;11.63;;
6667;SDS011;3370;47.712;9.082;2022-12-07T14:40:28;17.90;;;12.90;;
6667;SDS011;3370;47.712;9.082;2022-12-07T14:42:57;17.80;;;11.57;;
6667;SDS011;3370;47.712;9.082;2022-12-07T14:45:27;15.83;;;10.70;;
6667;SDS011;3370;47.712;9.082;2022-12-07T14:47:54;16.03;;;11.33;;
6667;SDS011;3370;47.712;9.082;2022-12-07T14:50:20;21.17;;;13.20;;
6667;SDS011;3370;47.712;9.082;2022-12-07T14:52:50;21.60;;;12.90;;
6667;SDS011;3370;47.712;9.082;2022-12-07T14:55:28;14.30;;;11.43;;
6667;SDS011;3370;47.712;9.082;2022-12-07T14:57:56;14.80;;;11.80;;
6667;SDS011;3370;47.712;9.082;2022-12-07T15:00:23;14.90;;;11.43;;
6667;SDS011;3370;47.712;9.082;2022-12-07T15:02:51;15.43;;;10.50;;
6667;SDS011;3370;47.712;9.082;2022-12-07T15:05:17;14.97;;;11.00;;
6667;SDS011;3370;47.712;9.082;2022-12-07T15:07:44;15.60;;;10.20;;
6667;SDS011;3370;47.712;9.082;2022-12-07T15:10:16;15.97;;;11.37;;
6667;SDS011;3370;47.712;9.082;2022-12-07T15:12:45;17.90;;;12.17;;
6667;SDS011;3370;47.712;9.082;2022-12-07T15:15:11;18.07;;;10.87;;
6667;SDS011;3370;47.712;9.082;2022-12-07T15:17:37;16.50;;;11.23;;
6667;SDS011;3370;47.712;9.082;2022-12-07T15:20:03;24.20;;;13.00;;
6667;SDS011;3370;47.712;9.082;2022-12-07T15:22:30;19.37;;;12.27;;
6667;SDS011;3370;47.712;9.082;2022-12-07T15:24:57;16.70;;;11.30;;
6667;SDS011;3370;47.712;9.082;2022-12-07T15:27:23;15.17;;;11.23;;
6667;SDS011;3370;47.712;9.082;2022-12-07T15:29:49;20.50;;;13.93;;
6667;SDS011;3370;47.712;9.082;2022-12-07T15:32:14;20.37;;;11.13;;
6667;SDS011;3370;47.712;9.082;2022-12-07T15:34:40;21.47;;;13.47;;
6667;SDS011;3370;47.712;9.082;2022-12-07T15:37:07;16.50;;;11.93;;
6667;SDS011;3370;47.712;9.082;2022-12-07T15:39:33;15.27;;;9.70;;
6667;SDS011;3370;47.712;9.082;2022-12-07T15:41:59;21.43;;;12.33;;
6667;SDS011;3370;47.712;9.082;2022-12-07T15:44:25;17.00;;;12.20;;
6667;SDS011;3370;47.712;9.082;2022-12-07T15:47:09;29.77;;;10.90;;
6667;SDS011;3370;47.712;9.082;2022-12-07T15:49:35;16.60;;;10.20;;
6667;SDS011;3370;47.712;9.082;2022-12-07T15:52:01;19.27;;;10.80;;
6667;SDS011;3370;47.712;9.082;2022-12-07T15:54:28;14.90;;;11.10;;
6667;SDS011;3370;47.712;9.082;2022-12-07T15:56:55;16.63;;;11.67;;
6667;SDS011;3370;47.712;9.082;2022-12-07T15:59:21;14.53;;;10.97;;
6667;SDS011;3370;47.712;9.082;2022-12-07T16:01:48;14.20;;;10.83;;
6667;SDS011;3370;47.712;9.082;2022-12-07T16:04:13;18.13;;;11.43;;
6667;SDS011;3370;47.712;9.082;2022-12-07T16:06:39;15.90;;;10.20;;
6667;SDS011;3370;47.712;9.082;2022-12-07T16:09:06;13.80;;;10.80;;
6667;SDS011;3370;47.712;9.082;2022-12-07T16:11:32;19.77;;;11.77;;
6667;SDS011;3370;47.712;9.082;2022-12-07T16:13:59;18.23;;;12.00;;
6667;SDS011;3370;47.712;9.082;2022-12-07T16:16:25;17.03;;;12.50;;
6667;SDS011;3370;47.712;9.082;2022-12-07T16:18:52;25.80;;;12.17;;
6667;SDS011;3370;47.712;9.082;2022-12-07T16:21:18;20.47;;;13.27;;
6667;SDS011;3370;47.712;9.082;2022-12-07T16:23:44;15.33;;;10.90;;
6667;SDS011;3370;47.712;9.082;2022-12-07T16:26:14;19.47;;;11.77;;
6667;SDS011;3370;47.712;9.082;2022-12-07T16:28:43;19.43;;;12.00;;
6667;SDS011;3370;47.712;9.082;2022-12-07T16:31:14;17.53;;;11.67;;
6667;SDS011;3370;47.712;9.082;2022-12-07T16:33:42;18.27;;;12.50;;
6667;SDS011;3370;47.712;9.082;2022-12-07T16:36:09;19.70;;;12.37;;
6667;SDS011;3370;47.712;9.082;2022-12-07T16:38:43;16.10;;;12.17;;
6667;SDS011;3370;47.712;9.082;2022-12-07T16:41:09;16.20;;;11.30;;
6667;SDS011;3370;47.712;9.082;2022-12-07T16:43:35;16.17;;;11.30;;
6667;SDS011;3370;47.712;9.082;2022-12-07T16:46:01;21.73;;;12.93;;
6667;SDS011;3370;47.712;9.082;2022-12-07T16:48:28;17.27;;;12.20;;
6667;SDS011;3370;47.712;9.082;2022-12-07T16:50:54;18.20;;;11.83;;
6667;SDS011;3370;47.712;9.082;2022-12-07T16:53:21;18.00;;;12.27;;
6667;SDS011;3370;47.712;9.082;2022-12-07T16:55:49;21.37;;;11.77;;
6667;SDS011;3370;47.712;9.082;2022-12-07T16:58:15;16.60;;;11.60;;
6667;SDS011;3370;47.712;9.082;2022-12-07T17:00:43;17.27;;;11.97;;
6667;SDS011;3370;47.712;9.082;2022-12-07T17:03:10;24.00;;;12.50;;
6667;SDS011;3370;47.712;9.082;2022-12-07T17:05:40;17.80;;;11.77;;
6667;SDS011;3370;47.712;9.082;2022-12-07T17:08:10;22.60;;;13.13;;
6667;SDS011;3370;47.712;9.082;2022-12-07T17:10:38;17.80;;;11.33;;
6667;SDS011;3370;47.712;9.082;2022-12-07T17:13:08;14.60;;;10.83;;